Terminal Aerodrome Forecast
Issued by NWS Greer, SC

Home | Current Version | Previous Version | Text Only | Print | Product List | Glossary On
Versions: 1 2 3 4 5 6 7 8 9 10 11 12 13 14 15 16 17 18 19
000
FTUS42 KGSP 112300
TAFGSP
TAF
KGSP 112320Z 1200/1224 13005KT P6SM FEW050 SCT250
     FM120200 11005KT P6SM FEW250
     FM120900 11003KT 4SM BR SCT140
     FM121300 08003KT P6SM SCT015 SCT060
     FM121800 10006KT P6SM SCT050 SCT250=

USA.gov is the U.S. government's official web portal to all federal, state and local government web resources and services.